Time;durP1;ratioP1;P1;durP2;ratioP2;P2;SDS_P1;SDS_P2;PMS_P1;PMS_P2;Temp;Humidity;BMP_temperature;BMP_pressure;BME280_temperature;BME280_humidity;BME280_pressure;Samples;Min_cycle;Max_cycle;Signal;HPM_P1;HPM_P2
2024/01/31 00:02:08;;;;;;;3.45;1.10;;;5.80;99.90;;;;;;5091751;28;20516;-60
2024/01/31 00:04:36;;;;;;;4.07;0.90;;;5.80;99.90;;;;;;5090942;28;20126;-60
2024/01/31 00:07:02;;;;;;;5.15;1.00;;;5.80;99.90;;;;;;5093389;28;20536;-60
2024/01/31 00:09:28;;;;;;;5.95;0.80;;;5.80;99.90;;;;;;5091040;28;20139;-60
2024/01/31 00:11:53;;;;;;;8.55;2.70;;;5.70;99.90;;;;;;5090702;28;20055;-60
2024/01/31 00:14:20;;;;;;;4.13;0.95;;;5.70;99.90;;;;;;5092841;28;20036;-61
2024/01/31 00:16:46;;;;;;;6.35;1.83;;;5.70;99.90;;;;;;5091292;28;20078;-61
2024/01/31 00:19:11;;;;;;;5.47;1.55;;;5.70;99.90;;;;;;5090657;28;20036;-60
2024/01/31 00:21:38;;;;;;;9.13;1.35;;;5.70;99.90;;;;;;5091356;28;20047;-61
2024/01/31 00:24:05;;;;;;;3.85;1.67;;;5.70;99.90;;;;;;5091602;28;20055;-61
2024/01/31 00:26:31;;;;;;;6.85;1.02;;;5.60;99.90;;;;;;5091668;28;20047;-61
2024/01/31 00:28:58;;;;;;;4.18;1.25;;;5.70;99.90;;;;;;5092765;28;20036;-60
2024/01/31 00:31:24;;;;;;;3.65;0.93;;;5.70;99.90;;;;;;5073543;28;20413;-60
2024/01/31 00:33:50;;;;;;;5.07;1.13;;;5.70;99.90;;;;;;5090371;28;20495;-60
2024/01/31 00:36:16;;;;;;;7.13;1.52;;;5.70;99.90;;;;;;5091094;28;20044;-61
2024/01/31 00:38:42;;;;;;;5.95;1.00;;;5.70;99.90;;;;;;5091219;28;20046;-61
2024/01/31 00:41:08;;;;;;;4.53;1.17;;;5.70;99.90;;;;;;5090474;28;20027;-60
2024/01/31 00:43:34;;;;;;;4.75;1.00;;;5.70;99.90;;;;;;5090914;28;20101;-60
2024/01/31 00:46:03;;;;;;;5.90;1.17;;;5.70;99.90;;;;;;5091153;28;20043;-61
2024/01/31 00:48:28;;;;;;;6.72;1.00;;;5.70;99.90;;;;;;5090100;28;20085;-61
2024/01/31 00:50:54;;;;;;;3.13;0.95;;;5.70;99.90;;;;;;5091513;28;20044;-60
2024/01/31 00:53:20;;;;;;;7.13;2.00;;;5.70;99.90;;;;;;5091383;28;20469;-60
2024/01/31 00:55:46;;;;;;;4.80;0.95;;;5.60;99.90;;;;;;5091389;28;20439;-60
2024/01/31 00:58:12;;;;;;;5.72;0.80;;;5.60;99.90;;;;;;5090778;28;20036;-61
2024/01/31 01:00:37;;;;;;;2.75;1.00;;;5.60;99.90;;;;;;5090982;28;20032;-60
2024/01/31 01:03:03;;;;;;;5.65;1.10;;;5.50;99.90;;;;;;5108067;28;20077;-60
2024/01/31 01:05:29;;;;;;;1.88;0.57;;;5.50;99.90;;;;;;5090816;28;20131;-61
2024/01/31 01:07:55;;;;;;;4.63;0.90;;;5.40;99.90;;;;;;5106939;28;20039;-61
2024/01/31 01:10:21;;;;;;;4.47;0.77;;;5.40;99.90;;;;;;5090613;28;20051;-60
2024/01/31 01:12:46;;;;;;;4.15;1.00;;;5.40;99.90;;;;;;5107474;28;20108;-60
2024/01/31 01:15:12;;;;;;;1.92;0.57;;;5.30;99.90;;;;;;5089717;28;20130;-60
2024/01/31 01:17:38;;;;;;;5.00;0.85;;;5.30;99.90;;;;;;5091985;28;20113;-60
2024/01/31 01:20:08;;;;;;;2.88;0.80;;;5.30;99.90;;;;;;5091119;28;20110;-61
2024/01/31 01:22:34;;;;;;;3.83;1.35;;;5.20;99.90;;;;;;5089623;28;20112;-61
2024/01/31 01:25:00;;;;;;;3.80;0.93;;;5.20;99.90;;;;;;5092707;28;20115;-60
2024/01/31 01:27:26;;;;;;;3.75;0.90;;;5.20;99.90;;;;;;5091808;28;20036;-60
2024/01/31 01:29:52;;;;;;;2.85;0.73;;;5.20;99.90;;;;;;5106513;28;20431;-60
2024/01/31 01:32:17;;;;;;;5.07;1.10;;;5.20;99.90;;;;;;5090355;28;20044;-61
2024/01/31 01:34:43;;;;;;;6.07;1.98;;;5.10;99.90;;;;;;5107776;28;20385;-60
2024/01/31 01:37:09;;;;;;;5.03;1.30;;;5.10;99.90;;;;;;5106701;28;20542;-60
2024/01/31 01:39:35;;;;;;;5.65;1.30;;;5.10;99.90;;;;;;5107706;28;20048;-61
2024/01/31 01:42:01;;;;;;;6.03;1.20;;;5.10;99.90;;;;;;5090798;28;20132;-61
2024/01/31 01:44:32;;;;;;;6.57;1.33;;;5.00;99.90;;;;;;5094048;28;20473;-61
2024/01/31 01:46:58;;;;;;;6.28;1.30;;;5.00;99.90;;;;;;5094904;28;20067;-60
2024/01/31 01:49:27;;;;;;;4.78;1.30;;;5.00;99.90;;;;;;5094428;28;20112;-61
2024/01/31 01:51:55;;;;;;;5.10;0.90;;;5.00;99.90;;;;;;5094478;28;20040;-60
2024/01/31 01:54:21;;;;;;;5.25;0.90;;;5.00;99.90;;;;;;5094118;28;20044;-61
2024/01/31 01:56:47;;;;;;;6.55;1.75;;;5.00;99.90;;;;;;5094713;28;20456;-61
2024/01/31 01:59:14;;;;;;;5.57;1.30;;;4.90;99.90;;;;;;5093464;28;20497;-60
2024/01/31 02:01:41;;;;;;;4.43;1.35;;;4.90;99.90;;;;;;5093433;28;20500;-61
2024/01/31 02:04:08;;;;;;;6.00;2.28;;;4.90;99.90;;;;;;5076558;28;20484;-60
2024/01/31 02:06:35;;;;;;;6.07;1.23;;;4.80;99.90;;;;;;5094018;28;20040;-61
2024/01/31 02:09:02;;;;;;;3.35;1.08;;;4.80;99.90;;;;;;5094069;28;20571;-61
2024/01/31 02:11:30;;;;;;;4.82;1.30;;;4.70;99.90;;;;;;5093125;28;20048;-61
2024/01/31 02:13:58;;;;;;;5.68;1.50;;;4.60;99.90;;;;;;5094052;28;20114;-61
2024/01/31 02:16:24;;;;;;;4.80;1.83;;;4.60;99.90;;;;;;5093781;28;20044;-60
2024/01/31 02:18:49;;;;;;;6.88;1.55;;;4.50;99.90;;;;;;5092891;28;20123;-60
2024/01/31 02:21:16;;;;;;;3.53;1.52;;;4.60;99.90;;;;;;5093975;28;20051;-61
2024/01/31 02:23:42;;;;;;;3.58;1.10;;;4.50;99.90;;;;;;5093653;28;20047;-60
2024/01/31 02:26:08;;;;;;;13.45;2.83;;;4.50;99.90;;;;;;5092910;28;20044;-61
2024/01/31 02:28:33;;;;;;;10.68;1.40;;;4.50;99.90;;;;;;5093748;28;20071;-61
2024/01/31 02:30:59;;;;;;;7.30;1.27;;;4.60;99.90;;;;;;5093239;28;20075;-61
2024/01/31 02:33:25;;;;;;;3.72;1.10;;;4.60;99.90;;;;;;5092660;28;20040;-61
2024/01/31 02:35:51;;;;;;;6.03;1.70;;;4.60;99.90;;;;;;5095103;28;20085;-61
2024/01/31 02:38:18;;;;;;;4.90;1.15;;;4.70;99.90;;;;;;5093423;28;20496;-61
2024/01/31 02:40:43;;;;;;;6.32;1.83;;;4.70;99.90;;;;;;5092379;28;20036;-61
2024/01/31 02:43:09;;;;;;;5.05;1.20;;;4.70;99.90;;;;;;5094313;28;20051;-61
2024/01/31 02:45:35;;;;;;;6.57;1.35;;;4.70;99.90;;;;;;5093564;28;20101;-61
2024/01/31 02:48:02;;;;;;;6.40;1.83;;;4.70;99.90;;;;;;5092946;28;20092;-60
2024/01/31 02:50:30;;;;;;;11.13;3.35;;;4.70;99.90;;;;;;5093225;28;20044;-61
2024/01/31 02:52:56;;;;;;;5.57;1.65;;;4.80;99.90;;;;;;5092642;28;20115;-61
2024/01/31 02:55:21;;;;;;;7.13;1.20;;;4.80;99.90;;;;;;5092057;28;20505;-61
2024/01/31 02:57:47;;;;;;;5.63;1.40;;;4.80;99.90;;;;;;5092493;28;20040;-61
2024/01/31 03:00:14;;;;;;;6.93;1.17;;;4.80;99.90;;;;;;5091962;28;20043;-60
2024/01/31 03:02:42;;;;;;;5.38;1.20;;;4.80;99.90;;;;;;5093219;28;20093;-61
2024/01/31 03:05:08;;;;;;;9.45;1.40;;;4.80;99.90;;;;;;5093303;28;20071;-61
2024/01/31 03:07:34;;;;;;;2.78;0.90;;;4.90;99.90;;;;;;5093151;28;20059;-61
2024/01/31 03:10:00;;;;;;;4.63;1.00;;;4.80;99.90;;;;;;5092846;28;20052;-60
2024/01/31 03:12:25;;;;;;;6.88;1.15;;;4.80;99.90;;;;;;5092389;28;20066;-61
2024/01/31 03:14:51;;;;;;;10.68;1.60;;;4.80;99.90;;;;;;5091004;28;20127;-60
2024/01/31 03:17:17;;;;;;;5.55;1.15;;;4.80;99.90;;;;;;5092681;28;20101;-60
2024/01/31 03:19:43;;;;;;;8.80;1.70;;;4.80;99.90;;;;;;5109325;28;20397;-61
2024/01/31 03:22:09;;;;;;;3.53;0.57;;;4.70;99.90;;;;;;5075007;28;20043;-60
2024/01/31 03:24:35;;;;;;;5.50;1.13;;;4.70;99.90;;;;;;5109596;28;20044;-61
2024/01/31 03:27:02;;;;;;;4.60;1.17;;;4.70;99.90;;;;;;5092692;28;20071;-61
2024/01/31 03:29:28;;;;;;;4.60;1.00;;;4.70;99.90;;;;;;5090856;28;20048;-61
2024/01/31 03:31:54;;;;;;;2.33;0.68;;;4.80;99.90;;;;;;5092166;28;20412;-60
2024/01/31 03:34:20;;;;;;;6.32;2.13;;;4.80;99.90;;;;;;5092353;28;20389;-61
2024/01/31 03:36:46;;;;;;;5.80;0.95;;;4.80;99.90;;;;;;5091541;28;20044;-61
2024/01/31 03:39:12;;;;;;;6.40;1.52;;;4.80;99.90;;;;;;5091994;28;20078;-61
2024/01/31 03:41:45;;;;;;;4.10;1.08;;;4.80;99.90;;;;;;5092114;28;20438;-60
2024/01/31 03:44:13;;;;;;;4.35;0.85;;;4.80;99.90;;;;;;5091454;28;20123;-60
2024/01/31 03:46:39;;;;;;;4.85;1.13;;;4.80;99.90;;;;;;5075224;28;20036;-61
2024/01/31 03:49:05;;;;;;;3.97;1.20;;;4.70;99.90;;;;;;5091535;28;20051;-60
2024/01/31 03:51:31;;;;;;;7.05;1.23;;;4.70;99.90;;;;;;5093200;28;20041;-61
2024/01/31 03:53:57;;;;;;;4.90;1.30;;;4.80;99.90;;;;;;5093168;28;20503;-60
2024/01/31 03:56:23;;;;;;;3.53;0.90;;;4.80;99.90;;;;;;5074070;28;20035;-61
2024/01/31 03:58:48;;;;;;;6.40;1.25;;;4.80;99.90;;;;;;5092982;28;20388;-61
2024/01/31 04:01:15;;;;;;;5.57;1.33;;;4.80;99.90;;;;;;5093178;28;20477;-61
2024/01/31 04:03:43;;;;;;;3.90;0.93;;;4.80;99.90;;;;;;5091174;28;20376;-60
2024/01/31 04:06:09;;;;;;;3.97;1.23;;;4.80;99.90;;;;;;5093005;28;20393;-61
2024/01/31 04:08:36;;;;;;;6.70;1.38;;;4.80;99.90;;;;;;5108577;28;20052;-60
2024/01/31 04:11:02;;;;;;;4.97;1.33;;;4.80;99.90;;;;;;5092499;28;20396;-61
2024/01/31 04:13:28;;;;;;;3.92;1.25;;;4.80;99.90;;;;;;5092696;28;20114;-61
2024/01/31 04:15:54;;;;;;;7.25;2.08;;;4.80;99.90;;;;;;5074710;28;20397;-60
2024/01/31 04:18:20;;;;;;;6.13;1.65;;;4.80;99.90;;;;;;5107843;28;20115;-61
2024/01/31 04:20:45;;;;;;;2.95;0.90;;;4.80;99.90;;;;;;5092620;28;20421;-61
2024/01/31 04:23:11;;;;;;;4.60;1.00;;;4.70;99.90;;;;;;5092437;28;20039;-60
2024/01/31 04:25:38;;;;;;;8.35;1.10;;;4.70;99.90;;;;;;5073223;28;20480;-61
2024/01/31 04:28:05;;;;;;;6.78;1.27;;;4.70;99.90;;;;;;5091188;28;20226;-60
2024/01/31 04:30:31;;;;;;;2.63;0.90;;;4.70;99.90;;;;;;5107931;28;20044;-61
2024/01/31 04:33:01;;;;;;;3.25;1.00;;;4.70;99.90;;;;;;5090519;28;20040;-60
2024/01/31 04:35:27;;;;;;;6.47;1.70;;;4.70;99.90;;;;;;5091204;28;20085;-60
2024/01/31 04:37:53;;;;;;;5.18;1.15;;;4.70;99.90;;;;;;5091962;28;20040;-60
2024/01/31 04:40:19;;;;;;;4.57;1.85;;;4.60;99.90;;;;;;5091352;28;20051;-61
2024/01/31 04:42:46;;;;;;;3.17;0.98;;;4.60;99.90;;;;;;5091054;28;20032;-61
2024/01/31 04:45:13;;;;;;;6.22;1.38;;;4.60;99.90;;;;;;5090924;28;20055;-60
2024/01/31 04:47:41;;;;;;;4.30;1.02;;;4.60;99.90;;;;;;5090200;28;20052;-61
2024/01/31 04:50:07;;;;;;;4.72;1.40;;;4.50;99.90;;;;;;5091165;28;20063;-61
2024/01/31 04:52:33;;;;;;;7.15;1.17;;;4.50;99.90;;;;;;5089952;28;20051;-60
2024/01/31 04:54:58;;;;;;;8.68;2.20;;;4.50;99.90;;;;;;5090673;28;20036;-61
2024/01/31 04:57:24;;;;;;;6.05;1.00;;;4.50;99.90;;;;;;5090836;28;20071;-61
2024/01/31 04:59:50;;;;;;;6.43;1.13;;;4.50;99.90;;;;;;5090993;28;20055;-61
2024/01/31 05:02:17;;;;;;;3.83;1.08;;;4.50;99.90;;;;;;5107529;28;20044;-61
2024/01/31 05:04:45;;;;;;;6.10;1.75;;;4.50;99.90;;;;;;5107393;28;20040;-61
2024/01/31 05:07:11;;;;;;;6.50;1.65;;;4.50;99.90;;;;;;5106726;28;20048;-61
2024/01/31 05:09:37;;;;;;;7.70;1.45;;;4.50;99.90;;;;;;5090357;28;20516;-61
2024/01/31 05:12:03;;;;;;;3.90;1.33;;;4.60;99.90;;;;;;5092307;28;20097;-61
2024/01/31 05:14:29;;;;;;;13.25;2.63;;;4.70;99.90;;;;;;5089243;28;20043;-61
2024/01/31 05:16:55;;;;;;;4.57;1.48;;;4.70;99.90;;;;;;5090898;28;20046;-60
2024/01/31 05:19:21;;;;;;;8.60;1.70;;;4.70;99.90;;;;;;5098114;28;20075;-61
2024/01/31 05:21:52;;;;;;;7.22;1.98;;;4.70;99.90;;;;;;5113183;28;20044;-61
2024/01/31 05:24:19;;;;;;;4.28;1.45;;;4.70;99.90;;;;;;5097243;28;20044;-61
2024/01/31 05:26:46;;;;;;;10.02;1.55;;;4.70;99.90;;;;;;5097037;28;20101;-61
2024/01/31 05:29:13;;;;;;;7.95;2.97;;;4.60;99.90;;;;;;5097485;28;20474;-60
2024/01/31 05:31:39;;;;;;;4.80;1.85;;;4.60;99.90;;;;;;5097100;28;20048;-61
2024/01/31 05:34:05;;;;;;;5.97;1.70;;;4.50;99.90;;;;;;5114470;28;20039;-61
2024/01/31 05:36:31;;;;;;;5.32;1.65;;;4.40;99.90;;;;;;5095670;28;20455;-61
2024/01/31 05:38:56;;;;;;;6.80;1.65;;;4.40;99.90;;;;;;5097540;28;20451;-61
2024/01/31 05:41:22;;;;;;;5.18;1.52;;;4.30;99.90;;;;;;5097033;28;20423;-60
2024/01/31 05:43:48;;;;;;;14.75;2.65;;;4.20;99.90;;;;;;5096327;28;20385;-61
2024/01/31 05:46:17;;;;;;;5.13;1.55;;;4.20;99.90;;;;;;5096434;28;20489;-61
2024/01/31 05:48:46;;;;;;;5.63;1.95;;;4.10;99.90;;;;;;5097085;28;20082;-61
2024/01/31 05:51:12;;;;;;;7.78;1.80;;;4.10;99.90;;;;;;5098069;28;20047;-60
2024/01/31 05:53:38;;;;;;;7.47;1.67;;;4.00;99.90;;;;;;5096635;28;20044;-61
2024/01/31 05:56:04;;;;;;;5.05;1.17;;;4.00;99.90;;;;;;5096744;28;20523;-60
2024/01/31 05:58:30;;;;;;;5.90;1.10;;;3.90;99.90;;;;;;5096629;28;20126;-61
2024/01/31 06:00:56;;;;;;;6.03;1.80;;;3.90;99.90;;;;;;5097269;28;20190;-61
2024/01/31 06:03:24;;;;;;;8.65;2.10;;;3.80;99.90;;;;;;5095796;28;20484;-61
2024/01/31 06:05:51;;;;;;;6.45;1.40;;;3.80;99.90;;;;;;5096694;28;20093;-61
2024/01/31 06:08:23;;;;;;;6.18;1.48;;;3.80;99.90;;;;;;5097930;28;20146;-61
2024/01/31 06:10:53;;;;;;;5.53;1.42;;;3.70;99.90;;;;;;5097312;28;20087;-61
2024/01/31 06:13:22;;;;;;;5.18;1.30;;;3.70;99.90;;;;;;5096903;28;20109;-60
2024/01/31 06:15:47;;;;;;;4.55;1.33;;;3.70;99.90;;;;;;5113562;28;20496;-61
2024/01/31 06:18:16;;;;;;;6.70;1.63;;;3.70;99.90;;;;;;5112201;28;20127;-61
2024/01/31 06:20:46;;;;;;;6.70;2.05;;;3.70;99.90;;;;;;5113850;28;20528;-61
2024/01/31 06:23:12;;;;;;;3.83;1.50;;;3.70;99.90;;;;;;5096743;28;20469;-61
2024/01/31 06:25:37;;;;;;;4.53;1.33;;;3.70;99.90;;;;;;5095423;28;20050;-61
2024/01/31 06:28:05;;;;;;;5.90;1.75;;;3.70;99.90;;;;;;5098146;28;20035;-61
2024/01/31 06:30:32;;;;;;;8.57;1.83;;;3.70;99.90;;;;;;5093604;28;20036;-60
2024/01/31 06:33:05;;;;;;;5.82;1.67;;;3.70;99.90;;;;;;5092901;28;20396;-61
2024/01/31 06:35:32;;;;;;;5.60;1.90;;;3.80;99.90;;;;;;5076425;28;20040;-60
2024/01/31 06:37:59;;;;;;;7.75;1.52;;;3.80;99.90;;;;;;5094148;28;20076;-60
2024/01/31 06:40:24;;;;;;;7.90;1.75;;;3.80;99.90;;;;;;5093311;28;20048;-61
2024/01/31 06:42:52;;;;;;;6.28;1.65;;;3.80;99.90;;;;;;5094548;28;20135;-61
2024/01/31 06:45:18;;;;;;;5.78;1.73;;;3.80;99.90;;;;;;5092560;28;20064;-60
2024/01/31 06:47:45;;;;;;;6.80;1.88;;;3.80;99.90;;;;;;5075943;28;20051;-60
2024/01/31 06:50:12;;;;;;;6.57;1.75;;;3.90;99.90;;;;;;5110212;28;20051;-60
2024/01/31 06:52:37;;;;;;;8.32;1.80;;;3.90;99.90;;;;;;5109446;28;20550;-61
2024/01/31 06:55:05;;;;;;;8.07;1.77;;;3.90;99.90;;;;;;5094194;28;20119;-61
2024/01/31 06:57:33;;;;;;;5.38;2.22;;;3.90;99.90;;;;;;5092981;28;20051;-61
2024/01/31 06:59:59;;;;;;;7.78;1.52;;;4.00;99.90;;;;;;5075212;28;20046;-61
2024/01/31 07:02:25;;;;;;;4.10;1.50;;;4.00;99.90;;;;;;5109420;28;20193;-61
2024/01/31 07:04:51;;;;;;;6.97;2.50;;;4.00;99.90;;;;;;5092544;28;20109;-61
2024/01/31 07:07:17;;;;;;;8.50;2.03;;;4.00;99.90;;;;;;5091299;28;20070;-61
2024/01/31 07:09:43;;;;;;;7.35;2.10;;;4.00;99.90;;;;;;5091773;28;20131;-61
2024/01/31 07:12:10;;;;;;;4.32;1.75;;;4.10;99.90;;;;;;5092810;28;20059;-60
2024/01/31 07:14:36;;;;;;;6.15;1.55;;;4.10;99.90;;;;;;5091869;28;20040;-60
2024/01/31 07:17:02;;;;;;;5.18;1.70;;;4.10;99.90;;;;;;5093074;28;20123;-60
2024/01/31 07:19:28;;;;;;;7.57;1.90;;;4.10;99.90;;;;;;5109724;28;20039;-61
2024/01/31 07:21:54;;;;;;;5.47;1.58;;;4.20;99.90;;;;;;5091753;28;20089;-60
2024/01/31 07:24:21;;;;;;;6.55;1.50;;;4.30;99.90;;;;;;5093998;28;20076;-61
2024/01/31 07:26:47;;;;;;;3.90;1.23;;;4.30;99.90;;;;;;5081602;28;20045;-62
2024/01/31 07:29:13;;;;;;;4.65;1.55;;;4.30;99.90;;;;;;5068881;28;20106;-61
2024/01/31 07:31:39;;;;;;;6.10;1.63;;;4.30;99.90;;;;;;5082345;28;20054;-61
2024/01/31 07:34:05;;;;;;;4.55;2.58;;;4.30;99.90;;;;;;5089852;28;20040;-61
2024/01/31 07:36:30;;;;;;;4.88;1.80;;;4.30;99.90;;;;;;5089805;28;20457;-61
2024/01/31 07:38:56;;;;;;;4.97;2.05;;;4.30;99.90;;;;;;5089829;28;20043;-61
2024/01/31 07:41:22;;;;;;;5.85;1.70;;;4.30;99.90;;;;;;5072176;28;20405;-61
2024/01/31 07:43:49;;;;;;;6.60;2.13;;;4.30;99.90;;;;;;5089591;28;20055;-61
2024/01/31 07:46:15;;;;;;;4.90;1.90;;;4.30;99.90;;;;;;5072055;28;20109;-61
2024/01/31 07:48:41;;;;;;;4.85;2.05;;;4.30;99.90;;;;;;5105795;28;20053;-60
2024/01/31 07:51:07;;;;;;;6.57;2.42;;;4.40;99.90;;;;;;5086669;28;20040;-61
2024/01/31 07:53:33;;;;;;;9.25;2.42;;;4.40;99.90;;;;;;5087729;28;20048;-61
2024/01/31 07:55:59;;;;;;;6.60;2.67;;;4.40;99.90;;;;;;5090538;28;20031;-61
2024/01/31 07:58:25;;;;;;;7.05;2.13;;;4.40;99.90;;;;;;5072659;28;20434;-61
2024/01/31 08:00:50;;;;;;;6.68;2.72;;;4.40;99.90;;;;;;5089096;28;20453;-61
2024/01/31 08:03:16;;;;;;;6.43;2.58;;;4.40;99.90;;;;;;5087915;28;20157;-61
2024/01/31 08:05:42;;;;;;;5.43;2.25;;;4.40;99.90;;;;;;5089270;28;20127;-61
2024/01/31 08:08:09;;;;;;;6.30;3.13;;;4.40;99.90;;;;;;5089499;28;20093;-61
2024/01/31 08:10:35;;;;;;;7.03;2.33;;;4.50;99.90;;;;;;5089308;28;20510;-61
2024/01/31 08:13:03;;;;;;;5.70;2.90;;;4.50;99.90;;;;;;5089014;28;20108;-60
2024/01/31 08:15:31;;;;;;;6.50;2.80;;;4.50;99.90;;;;;;5087043;28;20043;-61
2024/01/31 08:17:59;;;;;;;11.35;3.15;;;4.60;99.90;;;;;;5088994;28;20387;-61
2024/01/31 08:20:25;;;;;;;7.05;3.38;;;4.60;99.90;;;;;;5089273;28;20047;-61
2024/01/31 08:22:51;;;;;;;9.88;3.05;;;4.60;99.90;;;;;;5087685;28;20405;-61
2024/01/31 08:25:17;;;;;;;6.57;2.83;;;4.70;99.90;;;;;;5088083;28;20438;-61
2024/01/31 08:27:43;;;;;;;7.25;3.00;;;4.70;99.90;;;;;;5088005;28;20040;-61
2024/01/31 08:30:10;;;;;;;6.40;3.47;;;4.70;99.90;;;;;;5088700;28;20467;-61
2024/01/31 08:32:37;;;;;;;9.95;3.78;;;4.80;99.90;;;;;;5071487;28;20046;-61
2024/01/31 08:35:03;;;;;;;8.90;3.65;;;4.80;99.90;;;;;;5106623;28;20118;-61
2024/01/31 08:37:30;;;;;;;8.00;3.83;;;4.90;99.90;;;;;;5077895;28;20072;-61
2024/01/31 08:39:56;;;;;;;6.90;3.63;;;4.90;99.90;;;;;;5089204;28;20036;-62
2024/01/31 08:42:22;;;;;;;8.82;3.67;;;5.00;99.90;;;;;;5088917;28;20051;-61
2024/01/31 08:44:48;;;;;;;7.43;3.72;;;5.00;99.90;;;;;;5087583;28;20097;-61
2024/01/31 08:47:14;;;;;;;8.48;3.60;;;5.00;99.90;;;;;;5088619;28;20504;-61
2024/01/31 08:49:40;;;;;;;7.72;3.35;;;5.10;99.90;;;;;;5088295;28;20044;-61
2024/01/31 08:52:07;;;;;;;6.45;3.30;;;5.10;99.90;;;;;;5089069;28;20386;-62
2024/01/31 08:54:33;;;;;;;8.75;4.32;;;5.10;99.90;;;;;;5088267;28;20086;-62
2024/01/31 08:57:00;;;;;;;7.93;3.67;;;5.10;99.90;;;;;;5088427;28;20648;-62
2024/01/31 08:59:25;;;;;;;9.95;4.15;;;5.20;99.90;;;;;;5087891;28;20040;-61
2024/01/31 09:01:53;;;;;;;11.63;4.60;;;5.20;99.90;;;;;;5088121;28;20105;-62
2024/01/31 09:04:20;;;;;;;10.25;5.00;;;5.30;99.90;;;;;;5088403;28;20044;-61
2024/01/31 09:06:46;;;;;;;8.90;4.63;;;5.30;99.90;;;;;;5088111;28;20046;-61
2024/01/31 09:09:12;;;;;;;8.25;4.38;;;5.30;99.90;;;;;;5088258;28;20070;-61
2024/01/31 09:11:38;;;;;;;8.52;4.80;;;5.40;99.90;;;;;;5088096;28;20043;-61
2024/01/31 09:14:06;;;;;;;9.35;5.07;;;5.40;99.90;;;;;;5096515;28;20047;-61
2024/01/31 09:16:34;;;;;;;11.90;4.82;;;5.50;99.90;;;;;;5087948;28;20486;-61
2024/01/31 09:19:01;;;;;;;9.85;4.80;;;5.50;99.90;;;;;;5088403;28;20125;-61
2024/01/31 09:21:27;;;;;;;9.95;5.22;;;5.60;99.90;;;;;;5086718;28;20052;-61
2024/01/31 09:23:57;;;;;;;11.88;6.60;;;5.60;99.90;;;;;;5088172;28;20515;-61
2024/01/31 09:26:23;;;;;;;9.00;4.45;;;5.60;99.90;;;;;;5087766;28;20067;-61
2024/01/31 09:28:50;;;;;;;8.85;4.97;;;5.70;99.90;;;;;;5087240;28;20657;-61
2024/01/31 09:31:28;;;;;;;12.98;5.10;;;5.60;99.90;;;;;;5070698;28;20052;-61
2024/01/31 09:33:55;;;;;;;10.05;4.95;;;5.70;99.90;;;;;;5088564;28;20404;-61
2024/01/31 09:36:21;;;;;;;10.07;5.78;;;5.70;99.90;;;;;;5088432;28;20043;-61
2024/01/31 09:38:48;;;;;;;10.10;5.15;;;5.80;99.90;;;;;;5077554;28;20040;-61
2024/01/31 09:41:15;;;;;;;11.40;4.80;;;5.80;99.90;;;;;;5099138;28;20043;-61
2024/01/31 09:43:42;;;;;;;8.52;5.10;;;5.80;99.90;;;;;;5087554;28;20044;-61
2024/01/31 09:46:11;;;;;;;12.00;5.13;;;5.90;99.90;;;;;;5086200;28;20048;-61
2024/01/31 09:48:39;;;;;;;9.20;4.85;;;5.90;99.90;;;;;;5086756;28;20092;-61
2024/01/31 09:51:07;;;;;;;10.20;5.22;;;5.80;99.90;;;;;;5071192;28;20060;-61
2024/01/31 09:53:36;;;;;;;8.50;4.68;;;5.90;99.90;;;;;;5087347;28;20043;-61
2024/01/31 09:56:02;;;;;;;10.70;5.47;;;5.90;99.90;;;;;;5070492;28;20079;-61
2024/01/31 09:58:29;;;;;;;10.43;5.93;;;5.90;99.90;;;;;;5090700;28;20039;-60
2024/01/31 10:00:56;;;;;;;9.60;5.30;;;6.00;99.90;;;;;;5108630;28;20047;-61
2024/01/31 10:03:24;;;;;;;10.50;5.22;;;6.00;99.90;;;;;;5089273;28;20051;-61
2024/01/31 10:05:52;;;;;;;10.73;5.15;;;6.00;99.90;;;;;;5091893;28;20408;-61
2024/01/31 10:08:18;;;;;;;9.95;5.20;;;6.10;99.90;;;;;;5108694;28;20056;-60
2024/01/31 10:10:43;;;;;;;10.68;5.70;;;6.10;99.90;;;;;;5108212;28;20135;-61
2024/01/31 10:13:09;;;;;;;12.18;5.72;;;6.20;99.90;;;;;;5092527;28;20477;-61
2024/01/31 10:15:35;;;;;;;10.25;5.78;;;6.20;99.90;;;;;;5092282;28;20047;-61
2024/01/31 10:18:03;;;;;;;10.10;5.30;;;6.20;99.90;;;;;;5090768;28;20040;-61
2024/01/31 10:20:30;;;;;;;9.48;4.53;;;6.30;99.90;;;;;;5091284;28;20477;-60
2024/01/31 10:22:59;;;;;;;8.60;4.57;;;6.30;99.90;;;;;;5090867;28;20492;-61
2024/01/31 10:25:26;;;;;;;10.23;4.53;;;6.40;99.90;;;;;;5092844;28;20048;-60
2024/01/31 10:27:52;;;;;;;9.68;5.07;;;6.40;99.90;;;;;;5090687;28;20141;-61
2024/01/31 10:30:19;;;;;;;8.63;4.72;;;6.50;99.90;;;;;;5090603;28;20450;-60
2024/01/31 10:32:48;;;;;;;8.88;4.78;;;6.50;99.90;;;;;;5108228;28;20052;-60
2024/01/31 10:35:15;;;;;;;9.25;4.78;;;6.50;99.90;;;;;;5093510;28;20412;-60
2024/01/31 10:37:42;;;;;;;12.50;5.15;;;6.50;99.90;;;;;;5090422;28;20119;-60
2024/01/31 10:40:12;;;;;;;11.50;4.90;;;6.50;99.90;;;;;;5090605;28;20043;-60
2024/01/31 10:42:40;;;;;;;9.75;4.57;;;6.40;99.90;;;;;;5073258;28;20039;-61
2024/01/31 10:45:06;;;;;;;11.43;5.75;;;6.40;99.90;;;;;;5090375;28;20040;-60
2024/01/31 10:47:32;;;;;;;9.32;4.90;;;6.50;99.90;;;;;;5090645;28;20047;-60
2024/01/31 10:49:58;;;;;;;8.68;4.88;;;6.50;99.90;;;;;;5090992;28;20040;-60
2024/01/31 10:52:30;;;;;;;8.65;4.15;;;6.50;99.90;;;;;;5089811;28;20048;-60
2024/01/31 10:55:00;;;;;;;9.75;4.75;;;6.50;99.90;;;;;;5090842;28;20040;-60
2024/01/31 10:57:28;;;;;;;11.15;4.00;;;6.50;99.90;;;;;;5090634;28;20042;-60
2024/01/31 10:59:58;;;;;;;8.45;4.82;;;6.50;99.90;;;;;;5090527;28;20093;-60
2024/01/31 11:02:32;;;;;;;9.82;4.65;;;6.50;99.90;;;;;;5091458;28;20455;-60
2024/01/31 11:05:06;;;;;;;10.02;4.93;;;6.50;99.90;;;;;;5088615;28;20125;-60
2024/01/31 11:07:43;;;;;;;10.13;5.32;;;6.50;99.90;;;;;;5090213;28;20083;-61
2024/01/31 11:10:21;;;;;;;9.75;5.25;;;6.50;99.90;;;;;;5090320;28;20121;-60
2024/01/31 11:13:06;;;;;;;10.63;5.18;;;6.50;99.90;;;;;;5089623;28;20059;-60
2024/01/31 11:15:34;;;;;;;10.32;4.63;;;6.50;99.90;;;;;;5091367;28;20161;-60
2024/01/31 11:18:10;;;;;;;13.07;5.05;;;6.50;99.90;;;;;;5092670;28;20058;-60
2024/01/31 11:20:49;;;;;;;10.35;4.60;;;6.50;99.90;;;;;;5093344;28;20416;-60
2024/01/31 11:23:24;;;;;;;8.40;4.28;;;6.50;99.90;;;;;;5092386;28;20054;-60
2024/01/31 11:25:50;;;;;;;;;;;6.50;99.90;;;;;;5092704;28;20047;-61
2024/01/31 11:28:19;;;;;;;9.98;3.60;;;6.50;99.90;;;;;;5074861;28;19916;-60
2024/01/31 11:30:51;;;;;;;7.93;3.83;;;6.50;99.90;;;;;;5092797;28;20046;-60
2024/01/31 11:33:17;;;;;;;8.63;4.32;;;6.50;99.90;;;;;;5091752;28;20040;-61
2024/01/31 11:35:44;;;;;;;9.40;4.80;;;6.50;99.90;;;;;;5092428;28;20044;-61
2024/01/31 11:38:10;;;;;;;9.90;4.10;;;6.50;99.90;;;;;;5091560;28;20047;-61
2024/01/31 11:40:39;;;;;;;7.45;3.60;;;6.60;99.90;;;;;;5108465;28;20032;-61
2024/01/31 11:43:07;;;;;;;8.23;3.50;;;6.60;99.90;;;;;;5079639;28;20048;-61
2024/01/31 11:45:33;;;;;;;8.02;3.72;;;6.60;99.90;;;;;;5107999;28;20042;-61
2024/01/31 11:47:59;;;;;;;14.07;3.90;;;6.60;99.90;;;;;;5091242;28;20426;-61
2024/01/31 11:50:26;;;;;;;7.90;3.83;;;6.60;99.90;;;;;;5091803;28;20533;-61
2024/01/31 11:52:52;;;;;;;7.72;3.95;;;6.60;99.90;;;;;;5092307;28;20042;-61
2024/01/31 11:55:26;;;;;;;6.60;3.53;;;6.60;99.90;;;;;;5090518;28;20051;-61
2024/01/31 11:57:53;;;;;;;8.57;3.20;;;6.70;99.90;;;;;;5091387;28;20123;-61
2024/01/31 12:00:21;;;;;;;7.40;3.67;;;6.70;99.90;;;;;;5091555;28;20457;-61
2024/01/31 12:02:47;;;;;;;8.63;3.58;;;6.70;99.90;;;;;;5091158;28;20044;-61
2024/01/31 12:05:13;;;;;;;6.65;3.38;;;6.70;99.90;;;;;;5092812;28;20111;-61
2024/01/31 12:07:39;;;;;;;7.45;3.22;;;6.70;99.90;;;;;;5093191;28;20592;-61
2024/01/31 12:10:09;;;;;;;7.82;3.80;;;6.70;99.90;;;;;;5092130;28;20063;-61
2024/01/31 12:12:41;;;;;;;6.10;3.30;;;6.70;99.90;;;;;;5091875;28;20413;-62
2024/01/31 12:15:11;;;;;;;5.30;2.83;;;6.70;99.90;;;;;;5091729;28;20550;-61
2024/01/31 12:17:38;;;;;;;6.20;3.20;;;6.80;99.90;;;;;;5090543;28;20092;-61
2024/01/31 12:20:08;;;;;;;6.72;3.72;;;6.80;99.90;;;;;;5091494;28;20111;-61
2024/01/31 12:22:36;;;;;;;6.80;3.13;;;6.80;99.90;;;;;;5090468;28;20040;-62
2024/01/31 12:25:03;;;;;;;6.57;3.20;;;6.80;99.90;;;;;;5074534;28;20083;-61
2024/01/31 12:27:29;;;;;;;7.70;3.55;;;6.80;99.90;;;;;;5071408;28;20548;-61
2024/01/31 12:29:54;;;;;;;7.95;3.60;;;6.80;99.90;;;;;;5089286;28;20488;-61
2024/01/31 12:32:20;;;;;;;7.78;3.15;;;6.90;99.90;;;;;;5092330;28;20047;-61
2024/01/31 12:34:46;;;;;;;5.32;2.75;;;6.90;99.90;;;;;;5074298;28;20048;-61
2024/01/31 12:37:13;;;;;;;6.60;3.30;;;6.90;99.90;;;;;;5089711;28;20040;-62
2024/01/31 12:39:40;;;;;;;6.32;2.97;;;6.90;99.90;;;;;;5091606;28;20101;-62
2024/01/31 12:42:06;;;;;;;6.50;2.72;;;6.90;99.90;;;;;;5090105;28;20047;-62
2024/01/31 12:44:33;;;;;;;6.72;3.15;;;6.90;99.90;;;;;;5090079;28;20435;-62
2024/01/31 12:47:04;;;;;;;8.35;3.63;;;6.90;99.90;;;;;;5107739;28;20048;-62
2024/01/31 12:49:32;;;;;;;7.45;3.55;;;7.00;99.90;;;;;;5087436;28;20050;-61
2024/01/31 12:51:57;;;;;;;7.18;3.35;;;7.00;99.90;;;;;;5107269;28;20066;-62
2024/01/31 12:54:23;;;;;;;6.50;3.30;;;7.00;99.90;;;;;;5073390;28;20028;-62